sensor_id;sensor_type;location;lat;lon;timestamp;P1;durP1;ratioP1;P2;durP2;ratioP2
21833;SDS011;11079;51.092;3.458;2023-02-23T00:02:40;80.20;;;38.60;;
21833;SDS011;11079;51.092;3.458;2023-02-23T00:05:52;79.28;;;35.92;;
21833;SDS011;11079;51.092;3.458;2023-02-23T00:09:23;76.75;;;37.47;;
21833;SDS011;11079;51.092;3.458;2023-02-23T00:29:40;90.38;;;40.33;;
21833;SDS011;11079;51.092;3.458;2023-02-23T01:33:08;97.72;;;43.47;;
21833;SDS011;11079;51.092;3.458;2023-02-23T01:36:07;87.80;;;41.85;;
21833;SDS011;11079;51.092;3.458;2023-02-23T01:38:45;103.20;;;43.22;;
21833;SDS011;11079;51.092;3.458;2023-02-23T01:41:38;99.55;;;44.95;;
21833;SDS011;11079;51.092;3.458;2023-02-23T01:51:18;90.65;;;40.22;;
21833;SDS011;11079;51.092;3.458;2023-02-23T01:54:24;85.80;;;39.40;;
21833;SDS011;11079;51.092;3.458;2023-02-23T01:57:11;92.10;;;41.17;;
21833;SDS011;11079;51.092;3.458;2023-02-23T01:59:40;89.32;;;41.05;;
21833;SDS011;11079;51.092;3.458;2023-02-23T02:35:43;87.90;;;39.13;;
21833;SDS011;11079;51.092;3.458;2023-02-23T02:51:48;95.20;;;42.13;;
21833;SDS011;11079;51.092;3.458;2023-02-23T03:01:44;90.43;;;41.85;;
21833;SDS011;11079;51.092;3.458;2023-02-23T03:39:07;95.55;;;42.53;;
21833;SDS011;11079;51.092;3.458;2023-02-23T03:52:42;77.75;;;39.08;;
21833;SDS011;11079;51.092;3.458;2023-02-23T03:55:39;82.85;;;40.15;;
21833;SDS011;11079;51.092;3.458;2023-02-23T03:58:34;81.10;;;38.67;;
21833;SDS011;11079;51.092;3.458;2023-02-23T07:20:23;106.43;;;45.78;;
21833;SDS011;11079;51.092;3.458;2023-02-23T07:22:49;107.57;;;46.05;;
21833;SDS011;11079;51.092;3.458;2023-02-23T07:25:16;107.57;;;46.55;;
21833;SDS011;11079;51.092;3.458;2023-02-23T07:27:42;116.90;;;47.63;;
21833;SDS011;11079;51.092;3.458;2023-02-23T07:30:12;102.28;;;46.40;;
21833;SDS011;11079;51.092;3.458;2023-02-23T07:32:38;106.65;;;46.33;;
21833;SDS011;11079;51.092;3.458;2023-02-23T07:35:04;102.13;;;47.83;;
21833;SDS011;11079;51.092;3.458;2023-02-23T07:37:30;106.20;;;46.40;;
21833;SDS011;11079;51.092;3.458;2023-02-23T07:39:56;99.35;;;44.70;;
21833;SDS011;11079;51.092;3.458;2023-02-23T07:42:22;108.53;;;46.55;;
21833;SDS011;11079;51.092;3.458;2023-02-23T07:44:47;104.60;;;45.83;;
21833;SDS011;11079;51.092;3.458;2023-02-23T07:47:13;95.93;;;44.58;;
21833;SDS011;11079;51.092;3.458;2023-02-23T07:49:39;101.05;;;43.78;;
21833;SDS011;11079;51.092;3.458;2023-02-23T07:52:05;106.65;;;45.08;;
21833;SDS011;11079;51.092;3.458;2023-02-23T07:54:30;95.38;;;44.20;;
21833;SDS011;11079;51.092;3.458;2023-02-23T07:56:56;104.57;;;46.85;;
21833;SDS011;11079;51.092;3.458;2023-02-23T07:59:22;97.63;;;44.05;;
21833;SDS011;11079;51.092;3.458;2023-02-23T08:01:48;96.45;;;43.08;;
21833;SDS011;11079;51.092;3.458;2023-02-23T08:04:15;91.53;;;41.03;;
21833;SDS011;11079;51.092;3.458;2023-02-23T08:06:41;101.53;;;43.25;;
21833;SDS011;11079;51.092;3.458;2023-02-23T08:09:07;111.03;;;46.38;;
21833;SDS011;11079;51.092;3.458;2023-02-23T08:11:32;108.18;;;46.28;;
21833;SDS011;11079;51.092;3.458;2023-02-23T08:13:58;109.18;;;45.25;;
21833;SDS011;11079;51.092;3.458;2023-02-23T08:16:30;101.25;;;44.28;;
21833;SDS011;11079;51.092;3.458;2023-02-23T08:18:58;102.22;;;41.42;;
21833;SDS011;11079;51.092;3.458;2023-02-23T08:21:24;83.55;;;37.47;;
21833;SDS011;11079;51.092;3.458;2023-02-23T08:23:51;89.75;;;39.45;;
21833;SDS011;11079;51.092;3.458;2023-02-23T08:26:17;86.18;;;36.30;;
21833;SDS011;11079;51.092;3.458;2023-02-23T08:28:42;88.90;;;37.67;;
21833;SDS011;11079;51.092;3.458;2023-02-23T08:31:11;81.90;;;36.70;;
21833;SDS011;11079;51.092;3.458;2023-02-23T08:33:37;84.32;;;36.47;;
21833;SDS011;11079;51.092;3.458;2023-02-23T08:36:07;82.63;;;36.47;;
21833;SDS011;11079;51.092;3.458;2023-02-23T08:38:33;85.68;;;38.55;;
21833;SDS011;11079;51.092;3.458;2023-02-23T08:41:04;79.00;;;35.83;;
21833;SDS011;11079;51.092;3.458;2023-02-23T08:43:30;82.80;;;35.80;;
21833;SDS011;11079;51.092;3.458;2023-02-23T08:45:56;86.43;;;37.58;;
21833;SDS011;11079;51.092;3.458;2023-02-23T08:48:22;80.97;;;37.25;;
21833;SDS011;11079;51.092;3.458;2023-02-23T08:50:48;82.15;;;36.58;;
21833;SDS011;11079;51.092;3.458;2023-02-23T08:53:15;81.03;;;36.67;;
21833;SDS011;11079;51.092;3.458;2023-02-23T08:55:41;73.20;;;36.13;;
21833;SDS011;11079;51.092;3.458;2023-02-23T08:58:07;73.70;;;34.13;;
21833;SDS011;11079;51.092;3.458;2023-02-23T09:00:34;82.85;;;37.40;;
21833;SDS011;11079;51.092;3.458;2023-02-23T09:03:04;78.57;;;34.90;;
21833;SDS011;11079;51.092;3.458;2023-02-23T09:05:31;85.10;;;36.72;;
21833;SDS011;11079;51.092;3.458;2023-02-23T09:07:57;84.43;;;37.40;;
21833;SDS011;11079;51.092;3.458;2023-02-23T09:10:23;84.25;;;35.85;;
21833;SDS011;11079;51.092;3.458;2023-02-23T09:12:51;79.68;;;36.70;;
21833;SDS011;11079;51.092;3.458;2023-02-23T09:15:17;88.53;;;38.22;;
21833;SDS011;11079;51.092;3.458;2023-02-23T09:17:43;78.43;;;36.42;;
21833;SDS011;11079;51.092;3.458;2023-02-23T09:20:11;75.70;;;35.10;;
21833;SDS011;11079;51.092;3.458;2023-02-23T09:22:39;84.32;;;37.22;;
21833;SDS011;11079;51.092;3.458;2023-02-23T09:25:15;80.43;;;37.08;;
21833;SDS011;11079;51.092;3.458;2023-02-23T09:27:46;81.55;;;36.83;;
21833;SDS011;11079;51.092;3.458;2023-02-23T09:30:13;73.47;;;34.67;;
21833;SDS011;11079;51.092;3.458;2023-02-23T09:32:51;69.30;;;33.03;;
21833;SDS011;11079;51.092;3.458;2023-02-23T09:35:20;71.50;;;32.38;;
21833;SDS011;11079;51.092;3.458;2023-02-23T09:37:47;68.45;;;33.22;;
21833;SDS011;11079;51.092;3.458;2023-02-23T09:40:15;66.25;;;32.30;;
21833;SDS011;11079;51.092;3.458;2023-02-23T09:48:15;66.35;;;31.55;;
21833;SDS011;11079;51.092;3.458;2023-02-23T09:50:53;62.70;;;29.08;;
21833;SDS011;11079;51.092;3.458;2023-02-23T09:53:32;65.20;;;31.40;;
21833;SDS011;11079;51.092;3.458;2023-02-23T09:56:46;61.13;;;30.30;;
21833;SDS011;11079;51.092;3.458;2023-02-23T09:59:13;54.90;;;28.52;;
21833;SDS011;11079;51.092;3.458;2023-02-23T10:20:34;51.35;;;25.50;;
21833;SDS011;11079;51.092;3.458;2023-02-23T10:23:36;48.72;;;25.58;;
21833;SDS011;11079;51.092;3.458;2023-02-23T10:26:50;46.85;;;25.40;;
21833;SDS011;11079;51.092;3.458;2023-02-23T10:31:53;45.28;;;24.88;;
21833;SDS011;11079;51.092;3.458;2023-02-23T10:34:26;48.35;;;25.88;;
21833;SDS011;11079;51.092;3.458;2023-02-23T10:37:04;53.13;;;26.58;;
21833;SDS011;11079;51.092;3.458;2023-02-23T10:39:35;49.13;;;26.35;;
21833;SDS011;11079;51.092;3.458;2023-02-23T10:42:05;50.72;;;26.20;;
21833;SDS011;11079;51.092;3.458;2023-02-23T10:44:37;55.83;;;27.70;;
21833;SDS011;11079;51.092;3.458;2023-02-23T10:47:16;49.42;;;26.05;;
21833;SDS011;11079;51.092;3.458;2023-02-23T10:49:46;55.03;;;27.75;;
21833;SDS011;11079;51.092;3.458;2023-02-23T10:52:16;53.42;;;28.67;;
21833;SDS011;11079;51.092;3.458;2023-02-23T10:54:47;52.22;;;27.83;;
21833;SDS011;11079;51.092;3.458;2023-02-23T11:00:32;51.17;;;27.05;;
21833;SDS011;11079;51.092;3.458;2023-02-23T11:06:33;53.33;;;26.17;;
21833;SDS011;11079;51.092;3.458;2023-02-23T11:14:49;49.38;;;24.05;;
21833;SDS011;11079;51.092;3.458;2023-02-23T11:22:53;40.08;;;20.58;;
21833;SDS011;11079;51.092;3.458;2023-02-23T11:25:27;39.83;;;21.30;;
21833;SDS011;11079;51.092;3.458;2023-02-23T11:27:55;46.67;;;22.88;;
21833;SDS011;11079;51.092;3.458;2023-02-23T11:30:22;41.90;;;22.08;;
21833;SDS011;11079;51.092;3.458;2023-02-23T11:32:55;38.72;;;20.63;;
21833;SDS011;11079;51.092;3.458;2023-02-23T11:37:48;37.92;;;20.67;;
21833;SDS011;11079;51.092;3.458;2023-02-23T11:40:17;38.28;;;20.15;;
21833;SDS011;11079;51.092;3.458;2023-02-23T11:45:22;37.75;;;20.48;;
21833;SDS011;11079;51.092;3.458;2023-02-23T11:47:54;38.70;;;19.85;;
21833;SDS011;11079;51.092;3.458;2023-02-23T11:50:31;34.05;;;19.77;;
21833;SDS011;11079;51.092;3.458;2023-02-23T11:53:11;35.22;;;20.05;;
21833;SDS011;11079;51.092;3.458;2023-02-23T11:55:43;34.35;;;19.88;;
21833;SDS011;11079;51.092;3.458;2023-02-23T11:58:36;37.90;;;19.98;;
21833;SDS011;11079;51.092;3.458;2023-02-23T12:01:15;32.17;;;17.98;;
21833;SDS011;11079;51.092;3.458;2023-02-23T12:03:50;34.00;;;18.33;;
21833;SDS011;11079;51.092;3.458;2023-02-23T12:11:51;29.10;;;15.90;;
21833;SDS011;11079;51.092;3.458;2023-02-23T12:14:32;30.80;;;15.50;;
21833;SDS011;11079;51.092;3.458;2023-02-23T12:17:05;34.15;;;15.95;;
21833;SDS011;11079;51.092;3.458;2023-02-23T12:19:43;33.38;;;16.45;;
21833;SDS011;11079;51.092;3.458;2023-02-23T12:22:19;29.00;;;16.30;;
21833;SDS011;11079;51.092;3.458;2023-02-23T12:27:27;27.85;;;16.30;;
21833;SDS011;11079;51.092;3.458;2023-02-23T12:30:17;28.63;;;15.40;;
21833;SDS011;11079;51.092;3.458;2023-02-23T12:32:55;31.08;;;16.33;;
21833;SDS011;11079;51.092;3.458;2023-02-23T12:35:37;28.50;;;15.55;;
21833;SDS011;11079;51.092;3.458;2023-02-23T12:40:51;31.77;;;17.42;;
21833;SDS011;11079;51.092;3.458;2023-02-23T12:46:36;30.08;;;15.98;;
21833;SDS011;11079;51.092;3.458;2023-02-23T12:52:01;25.33;;;15.60;;
21833;SDS011;11079;51.092;3.458;2023-02-23T12:54:35;27.50;;;15.27;;
21833;SDS011;11079;51.092;3.458;2023-02-23T13:05:40;28.15;;;15.98;;
21833;SDS011;11079;51.092;3.458;2023-02-23T13:19:39;22.13;;;12.73;;
21833;SDS011;11079;51.092;3.458;2023-02-23T13:24:42;20.80;;;12.10;;
21833;SDS011;11079;51.092;3.458;2023-02-23T13:27:17;19.52;;;11.80;;
21833;SDS011;11079;51.092;3.458;2023-02-23T13:29:50;18.13;;;11.10;;
21833;SDS011;11079;51.092;3.458;2023-02-23T13:32:23;18.05;;;10.90;;
21833;SDS011;11079;51.092;3.458;2023-02-23T13:35:12;20.60;;;12.32;;
21833;SDS011;11079;51.092;3.458;2023-02-23T13:40:21;20.42;;;11.73;;
21833;SDS011;11079;51.092;3.458;2023-02-23T13:43:08;22.48;;;12.75;;
21833;SDS011;11079;51.092;3.458;2023-02-23T13:51:27;19.17;;;11.15;;
21833;SDS011;11079;51.092;3.458;2023-02-23T13:56:42;14.57;;;9.15;;
21833;SDS011;11079;51.092;3.458;2023-02-23T13:59:16;16.63;;;10.48;;
21833;SDS011;11079;51.092;3.458;2023-02-23T14:01:50;16.58;;;9.85;;
21833;SDS011;11079;51.092;3.458;2023-02-23T14:07:00;14.77;;;10.05;;
21833;SDS011;11079;51.092;3.458;2023-02-23T14:26:44;11.23;;;7.88;;
21833;SDS011;11079;51.092;3.458;2023-02-23T14:29:39;11.07;;;7.88;;
21833;SDS011;11079;51.092;3.458;2023-02-23T14:32:46;11.40;;;7.35;;
21833;SDS011;11079;51.092;3.458;2023-02-23T14:35:35;11.13;;;7.60;;
21833;SDS011;11079;51.092;3.458;2023-02-23T14:41:00;11.70;;;7.45;;
21833;SDS011;11079;51.092;3.458;2023-02-23T14:46:19;12.25;;;8.05;;
21833;SDS011;11079;51.092;3.458;2023-02-23T14:49:00;14.02;;;8.15;;
21833;SDS011;11079;51.092;3.458;2023-02-23T14:51:38;10.57;;;7.43;;
21833;SDS011;11079;51.092;3.458;2023-02-23T14:54:09;10.70;;;7.75;;
21833;SDS011;11079;51.092;3.458;2023-02-23T14:56:58;12.35;;;8.05;;
21833;SDS011;11079;51.092;3.458;2023-02-23T14:59:37;12.38;;;8.90;;
21833;SDS011;11079;51.092;3.458;2023-02-23T15:02:15;13.77;;;8.35;;
21833;SDS011;11079;51.092;3.458;2023-02-23T15:04:46;12.10;;;8.18;;
21833;SDS011;11079;51.092;3.458;2023-02-23T15:07:16;12.75;;;8.52;;
21833;SDS011;11079;51.092;3.458;2023-02-23T15:09:49;13.50;;;8.35;;
21833;SDS011;11079;51.092;3.458;2023-02-23T15:12:42;11.35;;;8.13;;
21833;SDS011;11079;51.092;3.458;2023-02-23T15:15:13;14.60;;;9.43;;
21833;SDS011;11079;51.092;3.458;2023-02-23T15:17:43;14.18;;;8.98;;
21833;SDS011;11079;51.092;3.458;2023-02-23T15:20:14;13.35;;;8.93;;
21833;SDS011;11079;51.092;3.458;2023-02-23T15:22:42;16.35;;;9.70;;
21833;SDS011;11079;51.092;3.458;2023-02-23T15:25:18;12.95;;;8.73;;
21833;SDS011;11079;51.092;3.458;2023-02-23T15:27:47;15.65;;;9.15;;
21833;SDS011;11079;51.092;3.458;2023-02-23T15:30:45;15.05;;;9.55;;
21833;SDS011;11079;51.092;3.458;2023-02-23T15:40:18;12.70;;;8.25;;
21833;SDS011;11079;51.092;3.458;2023-02-23T15:42:49;15.18;;;9.38;;
21833;SDS011;11079;51.092;3.458;2023-02-23T15:48:12;15.25;;;8.52;;
21833;SDS011;11079;51.092;3.458;2023-02-23T15:50:43;16.58;;;9.48;;
21833;SDS011;11079;51.092;3.458;2023-02-23T15:53:22;14.02;;;9.57;;
21833;SDS011;11079;51.092;3.458;2023-02-23T15:55:52;17.73;;;10.95;;
21833;SDS011;11079;51.092;3.458;2023-02-23T15:58:23;17.73;;;11.05;;
21833;SDS011;11079;51.092;3.458;2023-02-23T16:00:55;19.98;;;11.35;;
21833;SDS011;11079;51.092;3.458;2023-02-23T16:03:34;21.45;;;12.10;;
21833;SDS011;11079;51.092;3.458;2023-02-23T16:06:05;19.90;;;11.15;;
21833;SDS011;11079;51.092;3.458;2023-02-23T16:08:46;18.02;;;10.32;;
21833;SDS011;11079;51.092;3.458;2023-02-23T16:11:23;17.27;;;10.30;;
21833;SDS011;11079;51.092;3.458;2023-02-23T16:13:50;18.10;;;10.85;;
21833;SDS011;11079;51.092;3.458;2023-02-23T16:16:18;16.50;;;10.35;;
21833;SDS011;11079;51.092;3.458;2023-02-23T16:18:53;18.98;;;11.27;;
21833;SDS011;11079;51.092;3.458;2023-02-23T16:21:26;20.05;;;11.63;;
21833;SDS011;11079;51.092;3.458;2023-02-23T16:23:59;17.30;;;10.75;;
21833;SDS011;11079;51.092;3.458;2023-02-23T16:26:33;17.88;;;10.43;;
21833;SDS011;11079;51.092;3.458;2023-02-23T16:29:14;18.08;;;10.55;;
21833;SDS011;11079;51.092;3.458;2023-02-23T16:31:55;17.17;;;10.20;;
21833;SDS011;11079;51.092;3.458;2023-02-23T16:34:27;15.63;;;9.68;;
21833;SDS011;11079;51.092;3.458;2023-02-23T16:36:59;23.38;;;10.25;;
21833;SDS011;11079;51.092;3.458;2023-02-23T16:39:28;15.40;;;9.43;;
21833;SDS011;11079;51.092;3.458;2023-02-23T16:41:58;15.07;;;9.00;;
21833;SDS011;11079;51.092;3.458;2023-02-23T16:44:25;13.13;;;7.28;;
21833;SDS011;11079;51.092;3.458;2023-02-23T16:49:33;18.67;;;9.80;;
21833;SDS011;11079;51.092;3.458;2023-02-23T16:51:59;22.45;;;13.00;;
21833;SDS011;11079;51.092;3.458;2023-02-23T16:54:25;20.77;;;11.88;;
21833;SDS011;11079;51.092;3.458;2023-02-23T16:56:51;24.42;;;13.00;;
21833;SDS011;11079;51.092;3.458;2023-02-23T16:59:19;34.08;;;17.38;;
21833;SDS011;11079;51.092;3.458;2023-02-23T17:01:56;34.78;;;19.13;;
21833;SDS011;11079;51.092;3.458;2023-02-23T17:04:22;49.75;;;28.08;;
21833;SDS011;11079;51.092;3.458;2023-02-23T17:06:47;69.55;;;40.50;;
21833;SDS011;11079;51.092;3.458;2023-02-23T17:09:19;43.88;;;26.70;;
21833;SDS011;11079;51.092;3.458;2023-02-23T17:11:45;13.27;;;7.45;;
21833;SDS011;11079;51.092;3.458;2023-02-23T17:14:14;17.25;;;10.68;;
21833;SDS011;11079;51.092;3.458;2023-02-23T17:16:55;13.63;;;8.32;;
21833;SDS011;11079;51.092;3.458;2023-02-23T17:19:21;11.10;;;6.03;;
21833;SDS011;11079;51.092;3.458;2023-02-23T17:21:48;22.67;;;12.60;;
21833;SDS011;11079;51.092;3.458;2023-02-23T17:24:14;11.15;;;6.75;;
21833;SDS011;11079;51.092;3.458;2023-02-23T17:26:40;18.00;;;5.95;;
21833;SDS011;11079;51.092;3.458;2023-02-23T17:29:06;17.48;;;7.93;;
21833;SDS011;11079;51.092;3.458;2023-02-23T17:31:32;13.13;;;6.30;;
21833;SDS011;11079;51.092;3.458;2023-02-23T17:33:58;16.92;;;6.53;;
21833;SDS011;11079;51.092;3.458;2023-02-23T17:36:26;9.35;;;4.75;;
21833;SDS011;11079;51.092;3.458;2023-02-23T17:38:59;15.57;;;5.63;;
21833;SDS011;11079;51.092;3.458;2023-02-23T17:41:26;17.52;;;6.38;;
21833;SDS011;11079;51.092;3.458;2023-02-23T17:43:59;13.82;;;5.82;;
21833;SDS011;11079;51.092;3.458;2023-02-23T17:46:29;12.82;;;6.47;;
21833;SDS011;11079;51.092;3.458;2023-02-23T17:48:55;10.57;;;4.88;;
21833;SDS011;11079;51.092;3.458;2023-02-23T17:51:21;7.78;;;5.10;;
21833;SDS011;11079;51.092;3.458;2023-02-23T17:53:46;12.25;;;5.53;;
21833;SDS011;11079;51.092;3.458;2023-02-23T17:56:12;9.32;;;5.07;;
21833;SDS011;11079;51.092;3.458;2023-02-23T17:58:39;11.40;;;5.60;;
21833;SDS011;11079;51.092;3.458;2023-02-23T18:01:06;8.85;;;5.50;;
21833;SDS011;11079;51.092;3.458;2023-02-23T18:03:33;14.40;;;7.60;;
21833;SDS011;11079;51.092;3.458;2023-02-23T18:06:10;10.32;;;5.72;;
21833;SDS011;11079;51.092;3.458;2023-02-23T18:08:38;15.77;;;7.00;;
21833;SDS011;11079;51.092;3.458;2023-02-23T18:11:06;12.40;;;5.85;;
21833;SDS011;11079;51.092;3.458;2023-02-23T18:13:32;13.30;;;6.03;;
21833;SDS011;11079;51.092;3.458;2023-02-23T18:16:02;12.00;;;5.05;;
21833;SDS011;11079;51.092;3.458;2023-02-23T18:18:33;10.40;;;5.03;;
21833;SDS011;11079;51.092;3.458;2023-02-23T18:21:02;11.77;;;4.95;;
21833;SDS011;11079;51.092;3.458;2023-02-23T18:23:29;13.25;;;5.18;;
21833;SDS011;11079;51.092;3.458;2023-02-23T18:26:04;11.20;;;5.13;;
21833;SDS011;11079;51.092;3.458;2023-02-23T18:28:31;11.55;;;4.22;;
21833;SDS011;11079;51.092;3.458;2023-02-23T18:30:58;16.95;;;6.00;;
21833;SDS011;11079;51.092;3.458;2023-02-23T18:33:23;13.95;;;4.75;;
21833;SDS011;11079;51.092;3.458;2023-02-23T18:35:49;18.90;;;4.97;;
21833;SDS011;11079;51.092;3.458;2023-02-23T18:38:14;12.07;;;4.03;;
21833;SDS011;11079;51.092;3.458;2023-02-23T18:40:40;15.50;;;4.78;;
21833;SDS011;11079;51.092;3.458;2023-02-23T18:43:06;13.45;;;4.68;;
21833;SDS011;11079;51.092;3.458;2023-02-23T18:45:32;19.20;;;5.03;;
21833;SDS011;11079;51.092;3.458;2023-02-23T18:47:58;21.25;;;5.30;;
21833;SDS011;11079;51.092;3.458;2023-02-23T18:50:24;22.90;;;6.57;;
21833;SDS011;11079;51.092;3.458;2023-02-23T18:52:51;17.52;;;5.55;;
21833;SDS011;11079;51.092;3.458;2023-02-23T18:55:26;23.35;;;6.75;;
21833;SDS011;11079;51.092;3.458;2023-02-23T18:57:52;24.77;;;7.18;;
21833;SDS011;11079;51.092;3.458;2023-02-23T19:00:18;41.47;;;14.25;;
21833;SDS011;11079;51.092;3.458;2023-02-23T19:02:44;27.17;;;7.28;;
21833;SDS011;11079;51.092;3.458;2023-02-23T19:05:13;35.58;;;8.95;;
21833;SDS011;11079;51.092;3.458;2023-02-23T19:07:41;18.90;;;7.50;;
21833;SDS011;11079;51.092;3.458;2023-02-23T19:10:08;30.10;;;8.63;;
21833;SDS011;11079;51.092;3.458;2023-02-23T19:12:36;30.40;;;8.55;;
21833;SDS011;11079;51.092;3.458;2023-02-23T19:15:03;30.20;;;8.88;;
21833;SDS011;11079;51.092;3.458;2023-02-23T19:17:52;29.17;;;7.95;;
21833;SDS011;11079;51.092;3.458;2023-02-23T19:20:18;24.33;;;7.82;;
21833;SDS011;11079;51.092;3.458;2023-02-23T19:22:46;28.90;;;9.32;;
21833;SDS011;11079;51.092;3.458;2023-02-23T19:25:19;36.40;;;11.23;;
21833;SDS011;11079;51.092;3.458;2023-02-23T19:28:32;30.50;;;8.15;;
21833;SDS011;11079;51.092;3.458;2023-02-23T19:31:14;25.20;;;6.13;;
21833;SDS011;11079;51.092;3.458;2023-02-23T19:34:34;23.23;;;6.20;;
21833;SDS011;11079;51.092;3.458;2023-02-23T19:37:35;27.13;;;8.05;;
21833;SDS011;11079;51.092;3.458;2023-02-23T19:40:23;23.30;;;6.20;;
21833;SDS011;11079;51.092;3.458;2023-02-23T19:43:00;30.23;;;5.15;;
21833;SDS011;11079;51.092;3.458;2023-02-23T19:45:32;41.05;;;9.90;;
21833;SDS011;11079;51.092;3.458;2023-02-23T19:47:58;27.85;;;7.68;;
21833;SDS011;11079;51.092;3.458;2023-02-23T19:50:27;31.33;;;10.07;;
21833;SDS011;11079;51.092;3.458;2023-02-23T19:53:08;29.52;;;6.75;;
21833;SDS011;11079;51.092;3.458;2023-02-23T19:55:34;26.67;;;6.07;;
21833;SDS011;11079;51.092;3.458;2023-02-23T19:57:59;29.27;;;7.90;;
21833;SDS011;11079;51.092;3.458;2023-02-23T20:00:29;34.50;;;10.35;;
21833;SDS011;11079;51.092;3.458;2023-02-23T20:02:55;27.00;;;8.32;;
21833;SDS011;11079;51.092;3.458;2023-02-23T20:05:25;25.65;;;5.82;;
21833;SDS011;11079;51.092;3.458;2023-02-23T20:07:50;25.17;;;5.70;;
21833;SDS011;11079;51.092;3.458;2023-02-23T20:10:16;31.05;;;7.63;;
21833;SDS011;11079;51.092;3.458;2023-02-23T20:12:49;26.08;;;5.05;;
21833;SDS011;11079;51.092;3.458;2023-02-23T20:15:17;21.15;;;5.10;;
21833;SDS011;11079;51.092;3.458;2023-02-23T20:17:43;20.48;;;3.70;;
21833;SDS011;11079;51.092;3.458;2023-02-23T20:20:16;29.30;;;4.55;;
21833;SDS011;11079;51.092;3.458;2023-02-23T20:22:45;30.60;;;7.38;;
21833;SDS011;11079;51.092;3.458;2023-02-23T20:25:11;23.23;;;3.63;;
21833;SDS011;11079;51.092;3.458;2023-02-23T20:27:40;24.85;;;4.45;;
21833;SDS011;11079;51.092;3.458;2023-02-23T20:30:09;22.33;;;3.95;;
21833;SDS011;11079;51.092;3.458;2023-02-23T20:32:41;14.77;;;3.78;;
21833;SDS011;11079;51.092;3.458;2023-02-23T20:35:23;21.80;;;5.10;;
21833;SDS011;11079;51.092;3.458;2023-02-23T20:40:52;21.45;;;5.10;;
21833;SDS011;11079;51.092;3.458;2023-02-23T20:43:18;17.58;;;4.13;;
21833;SDS011;11079;51.092;3.458;2023-02-23T20:45:43;16.52;;;3.47;;
21833;SDS011;11079;51.092;3.458;2023-02-23T20:48:11;24.13;;;4.30;;
21833;SDS011;11079;51.092;3.458;2023-02-23T20:50:45;14.70;;;3.40;;
21833;SDS011;11079;51.092;3.458;2023-02-23T20:53:14;16.58;;;3.92;;
21833;SDS011;11079;51.092;3.458;2023-02-23T20:55:40;22.92;;;4.95;;
21833;SDS011;11079;51.092;3.458;2023-02-23T20:58:08;20.33;;;4.13;;
21833;SDS011;11079;51.092;3.458;2023-02-23T21:00:50;17.98;;;3.40;;
21833;SDS011;11079;51.092;3.458;2023-02-23T21:03:20;20.83;;;3.88;;
21833;SDS011;11079;51.092;3.458;2023-02-23T21:05:47;16.20;;;3.65;;
21833;SDS011;11079;51.092;3.458;2023-02-23T21:08:14;24.58;;;4.97;;
21833;SDS011;11079;51.092;3.458;2023-02-23T21:10:40;19.85;;;4.90;;
21833;SDS011;11079;51.092;3.458;2023-02-23T21:13:21;22.08;;;4.20;;
21833;SDS011;11079;51.092;3.458;2023-02-23T21:15:53;16.60;;;4.30;;
21833;SDS011;11079;51.092;3.458;2023-02-23T21:18:22;17.42;;;4.32;;
21833;SDS011;11079;51.092;3.458;2023-02-23T21:20:48;20.25;;;4.47;;
21833;SDS011;11079;51.092;3.458;2023-02-23T21:23:16;25.17;;;4.75;;
21833;SDS011;11079;51.092;3.458;2023-02-23T21:25:45;24.33;;;3.83;;
21833;SDS011;11079;51.092;3.458;2023-02-23T21:28:18;24.48;;;4.60;;
21833;SDS011;11079;51.092;3.458;2023-02-23T21:31:10;20.77;;;3.72;;
21833;SDS011;11079;51.092;3.458;2023-02-23T21:33:53;19.50;;;4.68;;
21833;SDS011;11079;51.092;3.458;2023-02-23T21:36:38;17.95;;;3.67;;
21833;SDS011;11079;51.092;3.458;2023-02-23T21:39:23;15.75;;;3.65;;
21833;SDS011;11079;51.092;3.458;2023-02-23T21:42:21;11.73;;;4.03;;
21833;SDS011;11079;51.092;3.458;2023-02-23T21:45:27;21.35;;;3.40;;
21833;SDS011;11079;51.092;3.458;2023-02-23T21:55:24;14.63;;;3.38;;
21833;SDS011;11079;51.092;3.458;2023-02-23T21:57:55;11.98;;;3.00;;
21833;SDS011;11079;51.092;3.458;2023-02-23T22:00:23;18.27;;;5.03;;
21833;SDS011;11079;51.092;3.458;2023-02-23T22:02:52;15.35;;;3.17;;
21833;SDS011;11079;51.092;3.458;2023-02-23T22:05:20;20.05;;;3.50;;
21833;SDS011;11079;51.092;3.458;2023-02-23T22:07:49;17.02;;;3.00;;
21833;SDS011;11079;51.092;3.458;2023-02-23T22:10:17;12.60;;;3.10;;
21833;SDS011;11079;51.092;3.458;2023-02-23T22:12:49;18.63;;;4.10;;
21833;SDS011;11079;51.092;3.458;2023-02-23T22:15:19;15.80;;;4.00;;
21833;SDS011;11079;51.092;3.458;2023-02-23T22:17:56;24.08;;;4.32;;
21833;SDS011;11079;51.092;3.458;2023-02-23T22:20:24;21.75;;;4.78;;
21833;SDS011;11079;51.092;3.458;2023-02-23T22:22:50;14.90;;;3.70;;
21833;SDS011;11079;51.092;3.458;2023-02-23T22:25:22;14.88;;;3.03;;
21833;SDS011;11079;51.092;3.458;2023-02-23T22:27:50;23.33;;;3.97;;
21833;SDS011;11079;51.092;3.458;2023-02-23T22:30:27;17.73;;;3.28;;
21833;SDS011;11079;51.092;3.458;2023-02-23T22:33:53;14.88;;;2.72;;
21833;SDS011;11079;51.092;3.458;2023-02-23T22:36:33;13.35;;;3.80;;
21833;SDS011;11079;51.092;3.458;2023-02-23T22:39:06;9.48;;;2.90;;
21833;SDS011;11079;51.092;3.458;2023-02-23T22:41:34;16.73;;;3.60;;
21833;SDS011;11079;51.092;3.458;2023-02-23T22:44:27;13.18;;;3.25;;
21833;SDS011;11079;51.092;3.458;2023-02-23T22:46:57;14.40;;;3.20;;
21833;SDS011;11079;51.092;3.458;2023-02-23T22:49:23;16.40;;;3.42;;
21833;SDS011;11079;51.092;3.458;2023-02-23T22:51:55;10.90;;;2.60;;
21833;SDS011;11079;51.092;3.458;2023-02-23T22:54:20;11.80;;;3.13;;
21833;SDS011;11079;51.092;3.458;2023-02-23T22:56:48;16.58;;;3.55;;
21833;SDS011;11079;51.092;3.458;2023-02-23T22:59:25;10.77;;;2.83;;
21833;SDS011;11079;51.092;3.458;2023-02-23T23:01:54;8.63;;;2.55;;
21833;SDS011;11079;51.092;3.458;2023-02-23T23:04:20;12.07;;;2.60;;
21833;SDS011;11079;51.092;3.458;2023-02-23T23:06:47;12.38;;;2.53;;
21833;SDS011;11079;51.092;3.458;2023-02-23T23:09:16;12.57;;;2.58;;
21833;SDS011;11079;51.092;3.458;2023-02-23T23:11:44;12.27;;;2.92;;
21833;SDS011;11079;51.092;3.458;2023-02-23T23:14:15;15.85;;;2.67;;
21833;SDS011;11079;51.092;3.458;2023-02-23T23:16:43;13.13;;;2.72;;
